createdAt,value
2022-10-28T00:02:15.517Z,19.09
2022-10-28T00:04:43.133Z,19.09
2022-10-28T00:07:12.027Z,19.08
2022-10-28T00:09:39.574Z,19.09
2022-10-28T00:12:07.308Z,19.08
2022-10-28T00:14:34.871Z,19.08
2022-10-28T00:17:02.462Z,19.08
2022-10-28T00:19:30.630Z,19.07
2022-10-28T00:21:58.209Z,19.07
2022-10-28T00:24:27.325Z,19.07
2022-10-28T00:26:54.840Z,19.07
2022-10-28T00:29:22.577Z,19.06
2022-10-28T00:31:50.814Z,19.07
2022-10-28T00:34:19.616Z,19.06
2022-10-28T00:36:47.482Z,19.04
2022-10-28T00:39:16.196Z,19.05
2022-10-28T00:41:46.708Z,19.05
2022-10-28T00:44:51.914Z,19.04
2022-10-28T00:47:29.720Z,19.06
2022-10-28T00:49:58.628Z,19.04
2022-10-28T00:52:27.714Z,19.04
2022-10-28T00:54:55.235Z,19.03
2022-10-28T00:57:26.067Z,19.02
2022-10-28T00:59:54.110Z,19.03
2022-10-28T01:02:21.890Z,19.02
2022-10-28T01:04:49.552Z,19.02
2022-10-28T01:07:17.173Z,19.01
2022-10-28T01:09:44.732Z,19.02
2022-10-28T01:12:17.498Z,19.01
2022-10-28T01:14:52.864Z,19.00
2022-10-28T01:17:28.653Z,19.01
2022-10-28T01:20:30.357Z,19.00
2022-10-28T01:22:59.713Z,18.99
2022-10-28T01:25:50.515Z,18.99
2022-10-28T01:28:25.136Z,18.98
2022-10-28T01:31:09.401Z,18.99
2022-10-28T01:33:37.363Z,18.98
2022-10-28T01:36:08.553Z,18.99
2022-10-28T01:38:37.079Z,19.00
2022-10-28T01:41:08.525Z,18.99
2022-10-28T01:43:39.412Z,18.99
2022-10-28T01:46:09.314Z,18.98
2022-10-28T01:48:38.984Z,18.99
2022-10-28T01:51:08.817Z,18.98
2022-10-28T01:53:38.124Z,18.97
2022-10-28T01:56:08.537Z,18.98
2022-10-28T01:58:36.082Z,18.96
2022-10-28T02:01:04.763Z,18.96
2022-10-28T02:03:33.770Z,18.97
2022-10-28T02:06:01.944Z,18.96
2022-10-28T02:08:44.704Z,18.96
2022-10-28T02:11:20.978Z,18.95
2022-10-28T02:13:52.785Z,18.97
2022-10-28T02:16:22.434Z,18.96
2022-10-28T02:18:55.470Z,18.95
2022-10-28T02:21:26.272Z,18.95
2022-10-28T02:23:54.362Z,18.95
2022-10-28T02:26:23.030Z,18.94
2022-10-28T02:28:51.808Z,18.94
2022-10-28T02:31:22.061Z,18.94
2022-10-28T02:33:51.313Z,18.95
2022-10-28T02:36:20.229Z,18.93
2022-10-28T02:38:49.061Z,18.94
2022-10-28T02:41:18.503Z,18.93
2022-10-28T02:43:46.044Z,18.93
2022-10-28T02:46:13.611Z,18.93
2022-10-28T02:48:42.031Z,18.92
2022-10-28T02:51:11.466Z,18.92
2022-10-28T02:53:45.977Z,18.93
2022-10-28T02:56:13.537Z,18.93
2022-10-28T02:58:41.229Z,18.91
2022-10-28T03:01:09.000Z,18.92
2022-10-28T03:03:36.681Z,18.90
2022-10-28T03:06:04.465Z,18.91
2022-10-28T03:08:32.072Z,18.90
2022-10-28T03:11:00.965Z,18.90
2022-10-28T03:13:28.493Z,18.90
2022-10-28T03:15:56.141Z,18.90
2022-10-28T03:18:23.686Z,18.89
2022-10-28T03:20:54.245Z,18.90
2022-10-28T03:23:24.350Z,18.89
2022-10-28T03:25:51.913Z,18.89
2022-10-28T03:28:20.847Z,18.89
2022-10-28T03:30:48.416Z,18.88
2022-10-28T03:33:16.028Z,18.88
2022-10-28T03:35:43.623Z,18.88
2022-10-28T03:38:11.249Z,18.88
2022-10-28T03:40:38.798Z,18.88
2022-10-28T03:43:06.373Z,18.87
2022-10-28T03:45:35.275Z,18.88
2022-10-28T03:48:02.848Z,18.87
2022-10-28T03:50:30.385Z,18.87
2022-10-28T03:52:57.957Z,18.88
2022-10-28T03:55:25.861Z,18.86
2022-10-28T03:57:53.736Z,18.86
2022-10-28T04:00:21.681Z,18.87
2022-10-28T04:02:52.476Z,18.87
2022-10-28T04:05:20.720Z,18.86
2022-10-28T04:07:48.312Z,18.87
2022-10-28T04:10:16.009Z,18.86
2022-10-28T04:12:43.681Z,18.87
2022-10-28T04:15:11.560Z,18.86
2022-10-28T04:17:39.074Z,18.85
2022-10-28T04:20:09.687Z,18.86
2022-10-28T04:22:37.231Z,18.87
2022-10-28T04:25:05.456Z,18.85
2022-10-28T04:27:33.098Z,18.85
2022-10-28T04:30:00.696Z,18.84
2022-10-28T04:32:28.247Z,18.85
2022-10-28T04:34:55.834Z,18.84
2022-10-28T04:37:24.802Z,18.85
2022-10-28T04:39:52.361Z,18.84
2022-10-28T04:42:19.884Z,18.84
2022-10-28T04:44:47.434Z,18.84
2022-10-28T04:47:14.957Z,18.84
2022-10-28T04:49:42.528Z,18.83
2022-10-28T04:52:13.349Z,18.82
2022-10-28T04:54:44.613Z,18.84
2022-10-28T04:57:12.156Z,18.83
2022-10-28T04:59:39.737Z,18.84
2022-10-28T05:02:07.352Z,18.84
2022-10-28T05:04:35.035Z,18.83
2022-10-28T05:07:02.586Z,18.83
2022-10-28T05:09:30.162Z,18.83
2022-10-28T05:11:59.105Z,18.82
2022-10-28T05:14:26.705Z,18.82
2022-10-28T05:16:54.313Z,18.82
2022-10-28T05:19:21.988Z,18.82
2022-10-28T05:21:49.524Z,18.82
2022-10-28T05:24:17.060Z,18.83
2022-10-28T05:26:44.641Z,18.81
2022-10-28T05:29:13.635Z,18.80
2022-10-28T05:31:41.182Z,18.81
2022-10-28T05:34:09.206Z,18.82
2022-10-28T05:36:36.889Z,18.81
2022-10-28T05:39:04.672Z,18.81
2022-10-28T05:41:35.186Z,18.82
2022-10-28T05:44:05.850Z,18.81
2022-10-28T05:46:34.788Z,18.80
2022-10-28T05:49:02.345Z,18.80
2022-10-28T05:51:29.865Z,18.80
2022-10-28T05:53:57.429Z,18.79
2022-10-28T05:56:25.393Z,18.80
2022-10-28T05:58:52.987Z,18.80
2022-10-28T06:01:20.601Z,18.80
2022-10-28T06:03:49.600Z,18.79
2022-10-28T06:06:17.181Z,18.79
2022-10-28T06:08:44.696Z,18.79
2022-10-28T06:11:10.751Z,18.78
2022-10-28T06:13:38.383Z,18.79
2022-10-28T06:16:06.232Z,18.78
2022-10-28T06:18:34.070Z,18.78
2022-10-28T06:21:03.630Z,18.78
2022-10-28T06:23:31.165Z,18.78
2022-10-28T06:25:59.195Z,18.76
2022-10-28T06:28:26.867Z,18.76
2022-10-28T06:30:54.441Z,18.77
2022-10-28T06:33:21.965Z,18.76
2022-10-28T06:35:49.492Z,18.77
2022-10-28T06:38:19.017Z,18.76
2022-10-28T06:40:49.059Z,18.76
2022-10-28T06:43:19.872Z,18.75
2022-10-28T06:45:52.121Z,18.75
2022-10-28T06:48:21.208Z,18.75
2022-10-28T06:50:48.776Z,18.75
2022-10-28T06:53:16.501Z,18.75
2022-10-28T06:55:48.787Z,18.75
2022-10-28T06:58:16.470Z,18.75
2022-10-28T07:00:44.061Z,18.74
2022-10-28T07:03:11.827Z,18.73
2022-10-28T07:05:39.346Z,18.73
2022-10-28T07:08:07.138Z,18.73
2022-10-28T07:10:34.904Z,18.72
2022-10-28T07:13:03.826Z,18.73
2022-10-28T07:15:31.621Z,18.72
2022-10-28T07:17:59.848Z,18.72
2022-10-28T07:20:28.257Z,18.73
2022-10-28T07:22:58.813Z,18.72
2022-10-28T07:25:26.806Z,18.73
2022-10-28T07:27:54.830Z,18.72
2022-10-28T07:30:24.136Z,18.72
2022-10-28T07:32:51.995Z,18.72
2022-10-28T07:35:19.846Z,18.70
2022-10-28T07:37:47.378Z,18.70
2022-10-28T07:40:15.023Z,18.71
2022-10-28T07:42:42.639Z,18.70
2022-10-28T07:45:10.734Z,18.70
2022-10-28T07:47:39.969Z,18.70
2022-10-28T07:50:08.438Z,18.70
2022-10-28T07:52:36.126Z,18.69
2022-10-28T07:55:03.926Z,18.70
2022-10-28T07:57:31.602Z,18.70
2022-10-28T07:59:59.242Z,18.69
2022-10-28T08:02:27.002Z,18.69
2022-10-28T08:04:56.864Z,18.70
2022-10-28T08:07:24.443Z,18.69
2022-10-28T08:09:53.262Z,18.68
2022-10-28T08:12:20.835Z,18.69
2022-10-28T08:14:48.423Z,18.69
2022-10-28T08:17:16.003Z,18.69
2022-10-28T08:19:43.560Z,18.68
2022-10-28T08:22:12.519Z,18.69
2022-10-28T08:24:40.207Z,18.69
2022-10-28T08:27:07.970Z,18.69
2022-10-28T08:29:35.497Z,18.68
2022-10-28T08:32:03.062Z,18.69
2022-10-28T08:34:31.259Z,18.69
2022-10-28T08:36:58.899Z,18.69
2022-10-28T08:39:27.791Z,18.69
2022-10-28T08:41:59.269Z,18.69
2022-10-28T08:45:06.843Z,18.69
2022-10-28T08:47:39.809Z,18.70
2022-10-28T08:50:13.675Z,18.69
2022-10-28T08:52:43.183Z,18.69
2022-10-28T08:55:15.351Z,18.69
2022-10-28T08:57:44.223Z,18.70
2022-10-28T09:00:19.480Z,18.70
2022-10-28T09:02:54.959Z,18.72
2022-10-28T09:05:23.842Z,18.72
2022-10-28T09:07:51.404Z,18.70
2022-10-28T09:10:26.355Z,18.72
2022-10-28T09:12:56.081Z,18.73
2022-10-28T09:15:29.378Z,18.73
2022-10-28T09:17:58.241Z,18.73
2022-10-28T09:20:30.716Z,18.73
2022-10-28T09:22:59.281Z,18.74
2022-10-28T09:25:32.529Z,18.76
2022-10-28T09:28:07.438Z,18.77
2022-10-28T09:30:40.951Z,18.78
2022-10-28T09:33:15.235Z,18.78
2022-10-28T09:35:44.352Z,18.78
2022-10-28T09:38:16.044Z,18.78
2022-10-28T09:40:46.424Z,18.79
2022-10-28T09:43:19.497Z,18.79
2022-10-28T09:45:48.042Z,18.79
2022-10-28T09:48:17.909Z,18.79
2022-10-28T09:50:45.531Z,18.80
2022-10-28T09:53:15.882Z,18.81
2022-10-28T09:55:44.806Z,18.81
2022-10-28T09:58:12.452Z,18.81
2022-10-28T10:00:40.002Z,18.82
2022-10-28T10:03:07.582Z,18.83
2022-10-28T10:05:38.420Z,18.83
2022-10-28T10:08:06.666Z,18.84
2022-10-28T10:10:37.484Z,18.85
2022-10-28T10:13:06.465Z,18.84
2022-10-28T10:15:36.796Z,18.87
2022-10-28T10:18:05.823Z,18.88
2022-10-28T10:20:47.747Z,18.89
2022-10-28T10:23:23.375Z,18.92
2022-10-28T10:25:55.571Z,18.94
2022-10-28T10:28:24.508Z,18.92
2022-10-28T10:30:53.451Z,18.93
2022-10-28T10:33:21.839Z,18.93
2022-10-28T10:35:59.038Z,18.94
2022-10-28T10:38:28.171Z,18.93
2022-10-28T10:40:55.773Z,18.93
2022-10-28T10:43:32.113Z,18.93
2022-10-28T10:46:04.484Z,18.92
2022-10-28T10:48:33.833Z,18.92
2022-10-28T10:51:05.846Z,18.93
2022-10-28T10:53:33.412Z,18.92
2022-10-28T10:56:01.718Z,18.92
2022-10-28T10:58:32.012Z,18.93
2022-10-28T11:01:00.727Z,18.92
2022-10-28T11:03:29.313Z,18.92
2022-10-28T11:06:18.383Z,18.92
2022-10-28T11:08:45.353Z,18.92
2022-10-28T11:11:14.459Z,18.90
2022-10-28T11:13:46.143Z,18.90
2022-10-28T11:16:21.794Z,18.90
2022-10-28T11:18:50.267Z,18.92
2022-10-28T11:21:42.957Z,18.91
2022-10-28T11:24:22.127Z,18.92
2022-10-28T11:26:52.878Z,18.92
2022-10-28T11:29:21.812Z,18.92
2022-10-28T11:32:06.667Z,18.94
2022-10-28T11:35:00.121Z,18.94
2022-10-28T11:37:33.554Z,18.94
2022-10-28T11:40:06.315Z,18.95
2022-10-28T11:42:36.688Z,18.96
2022-10-28T11:45:07.172Z,18.96
2022-10-28T11:48:07.847Z,18.96
2022-10-28T11:50:39.739Z,18.97
2022-10-28T11:53:27.427Z,18.96
2022-10-28T11:55:57.235Z,18.97
2022-10-28T11:58:31.280Z,18.97
2022-10-28T12:01:07.815Z,18.97
2022-10-28T12:03:44.712Z,18.98
2022-10-28T12:06:16.785Z,18.98
2022-10-28T12:08:52.370Z,18.98
2022-10-28T12:11:25.187Z,18.99
2022-10-28T12:13:57.905Z,18.99
2022-10-28T12:16:30.920Z,18.98
2022-10-28T12:19:00.116Z,18.98
2022-10-28T12:21:31.130Z,18.98
2022-10-28T12:23:59.228Z,18.98
2022-10-28T12:26:34.970Z,18.98
2022-10-28T12:29:03.297Z,18.98
2022-10-28T12:31:33.684Z,18.99
2022-10-28T12:34:02.354Z,18.98
2022-10-28T12:36:33.661Z,18.98
2022-10-28T12:39:02.634Z,18.97
2022-10-28T12:41:44.477Z,18.98
2022-10-28T12:44:12.952Z,18.98
2022-10-28T12:49:23.358Z,18.99
2022-10-28T12:51:50.904Z,18.99
2022-10-28T12:54:22.274Z,19.00
2022-10-28T12:56:52.694Z,19.00
2022-10-28T12:59:24.051Z,18.99
2022-10-28T13:01:53.091Z,19.01
2022-10-28T13:04:20.764Z,19.01
2022-10-28T13:06:58.773Z,19.01
2022-10-28T13:09:37.968Z,19.01
2022-10-28T13:12:35.987Z,19.01
2022-10-28T13:15:35.287Z,19.01
2022-10-28T13:18:16.447Z,19.02
2022-10-28T13:20:47.571Z,19.02
2022-10-28T13:23:22.325Z,19.02
2022-10-28T13:25:57.250Z,19.02
2022-10-28T13:28:25.707Z,19.03
2022-10-28T13:30:54.816Z,19.03
2022-10-28T13:33:25.281Z,19.03
2022-10-28T13:38:26.348Z,19.03
2022-10-28T13:41:11.664Z,19.02
2022-10-28T13:43:59.394Z,19.03
2022-10-28T13:47:01.395Z,19.04
2022-10-28T13:49:30.553Z,19.03
2022-10-28T13:52:01.494Z,19.03
2022-10-28T13:54:31.533Z,19.02
2022-10-28T13:57:03.850Z,19.02
2022-10-28T13:59:50.900Z,19.02
2022-10-28T14:02:35.319Z,19.02
2022-10-28T14:05:06.219Z,19.01
2022-10-28T14:07:34.579Z,19.02
2022-10-28T14:10:19.249Z,19.02
2022-10-28T14:12:48.679Z,19.01
2022-10-28T14:15:19.130Z,19.00
2022-10-28T14:17:48.751Z,19.01
2022-10-28T14:20:29.513Z,19.01
2022-10-28T14:22:57.206Z,19.01
2022-10-28T14:26:00.078Z,19.00
2022-10-28T14:28:56.071Z,18.99
2022-10-28T14:31:44.832Z,19.00
2022-10-28T14:34:32.006Z,18.99
2022-10-28T14:37:04.264Z,18.99
2022-10-28T14:39:38.951Z,18.99
2022-10-28T14:42:21.872Z,18.98
2022-10-28T14:45:01.799Z,18.98
2022-10-28T14:47:44.855Z,18.99
2022-10-28T14:50:17.619Z,18.98
2022-10-28T14:52:46.588Z,18.97
2022-10-28T14:55:21.482Z,18.99
2022-10-28T14:57:49.032Z,18.97
2022-10-28T15:00:18.633Z,18.98
2022-10-28T15:02:46.606Z,18.97
2022-10-28T15:05:15.985Z,18.97
2022-10-28T15:07:43.533Z,18.97
2022-10-28T15:10:19.402Z,18.97
2022-10-28T15:12:48.852Z,18.97
2022-10-28T15:15:18.426Z,18.97
2022-10-28T15:17:46.005Z,18.96
2022-10-28T15:20:19.052Z,18.95
2022-10-28T15:22:47.081Z,18.95
2022-10-28T15:25:15.189Z,18.96
2022-10-28T15:27:46.464Z,18.95
2022-10-28T15:30:15.596Z,18.95
2022-10-28T15:32:43.156Z,18.94
2022-10-28T15:35:37.998Z,18.95
2022-10-28T15:38:25.631Z,18.94
2022-10-28T15:40:53.196Z,18.94
2022-10-28T15:43:23.178Z,18.94
2022-10-28T15:45:50.722Z,18.93
2022-10-28T15:48:21.518Z,18.93
2022-10-28T15:51:11.033Z,18.93
2022-10-28T15:53:39.795Z,18.92
2022-10-28T15:56:24.050Z,18.92
2022-10-28T15:59:15.641Z,18.92
2022-10-28T16:01:43.262Z,18.91
2022-10-28T16:04:44.815Z,18.90
2022-10-28T16:07:12.371Z,18.90
2022-10-28T16:09:44.192Z,18.92
2022-10-28T16:12:14.420Z,18.90
2022-10-28T16:14:43.592Z,18.89
2022-10-28T16:17:15.346Z,18.89
2022-10-28T16:19:45.423Z,18.89
2022-10-28T16:22:13.812Z,18.89
2022-10-28T16:24:41.423Z,18.89
2022-10-28T16:27:19.538Z,18.88
2022-10-28T16:29:48.606Z,18.88
2022-10-28T16:32:16.575Z,18.88
2022-10-28T16:34:44.178Z,18.87
2022-10-28T16:37:20.580Z,18.87
2022-10-28T16:39:48.157Z,18.88
2022-10-28T16:42:15.839Z,18.87
2022-10-28T16:44:43.423Z,18.87
2022-10-28T16:47:13.677Z,18.88
2022-10-28T16:49:41.268Z,18.93
2022-10-28T16:52:12.925Z,18.97
2022-10-28T16:54:40.476Z,19.07
2022-10-28T16:57:08.032Z,19.13
2022-10-28T16:59:35.572Z,19.20
2022-10-28T17:02:03.235Z,19.26
2022-10-28T17:04:32.238Z,19.31
2022-10-28T17:06:59.826Z,19.38
2022-10-28T17:09:27.383Z,19.41
2022-10-28T17:11:55.036Z,19.42
2022-10-28T17:14:22.591Z,19.43
2022-10-28T17:16:50.248Z,19.43
2022-10-28T17:19:17.810Z,19.43
2022-10-28T17:21:51.446Z,19.39
2022-10-28T17:24:20.280Z,19.37
2022-10-28T17:26:47.857Z,19.35
2022-10-28T17:29:15.471Z,19.32
2022-10-28T17:31:43.042Z,19.30
2022-10-28T17:34:10.603Z,19.28
2022-10-28T17:36:38.144Z,19.26
2022-10-28T17:39:11.145Z,19.23
2022-10-28T17:41:41.255Z,19.22
2022-10-28T17:44:08.854Z,19.20
2022-10-28T17:46:36.399Z,19.19
2022-10-28T17:49:08.398Z,19.17
2022-10-28T17:51:36.857Z,19.16
2022-10-28T17:54:06.047Z,19.15
2022-10-28T17:56:34.983Z,19.13
2022-10-28T17:59:02.550Z,19.11
2022-10-28T18:01:30.531Z,19.10
2022-10-28T18:03:58.287Z,19.10
2022-10-28T18:06:26.008Z,19.08
2022-10-28T18:08:54.222Z,19.07
2022-10-28T18:11:21.952Z,19.06
2022-10-28T18:13:52.812Z,19.06
2022-10-28T18:16:21.549Z,19.08
2022-10-28T18:18:49.139Z,19.12
2022-10-28T18:21:16.718Z,19.18
2022-10-28T18:23:44.320Z,19.23
2022-10-28T18:26:13.609Z,19.29
2022-10-28T18:28:41.691Z,19.36
2022-10-28T18:31:11.408Z,19.43
2022-10-28T18:33:39.295Z,19.49
2022-10-28T18:36:08.059Z,19.56
2022-10-28T18:38:35.618Z,19.59
2022-10-28T18:41:03.164Z,19.64
2022-10-28T18:43:30.750Z,19.69
2022-10-28T18:46:01.338Z,19.74
2022-10-28T18:48:30.676Z,19.78
2022-10-28T18:50:58.532Z,19.81
2022-10-28T18:53:26.109Z,19.85
2022-10-28T18:55:53.686Z,19.86
2022-10-28T18:58:21.297Z,19.90
2022-10-28T19:00:48.864Z,19.93
2022-10-28T19:03:19.052Z,19.95
2022-10-28T19:05:48.047Z,19.96
2022-10-28T19:08:15.821Z,19.98
2022-10-28T19:10:43.404Z,19.99
2022-10-28T19:13:10.965Z,20.00
2022-10-28T19:15:42.046Z,20.03
2022-10-28T19:18:09.739Z,20.03
2022-10-28T19:20:37.275Z,20.07
2022-10-28T19:23:06.262Z,20.08
2022-10-28T19:25:33.872Z,20.09
2022-10-28T19:28:01.790Z,20.10
2022-10-28T19:30:29.385Z,20.12
2022-10-28T19:32:57.339Z,20.13
2022-10-28T19:35:25.115Z,20.15
2022-10-28T19:37:53.444Z,20.16
2022-10-28T19:40:22.405Z,20.16
2022-10-28T19:42:53.778Z,20.20
2022-10-28T19:45:21.733Z,20.23
2022-10-28T19:47:49.889Z,20.23
2022-10-28T19:50:17.576Z,20.21
2022-10-28T19:52:45.168Z,20.21
2022-10-28T19:55:15.040Z,20.22
2022-10-28T19:57:45.678Z,20.24
2022-10-28T20:00:15.798Z,20.25
2022-10-28T20:02:43.539Z,20.25
2022-10-28T20:05:11.321Z,20.26
2022-10-28T20:07:38.876Z,20.26
2022-10-28T20:10:07.319Z,20.26
2022-10-28T20:12:34.939Z,20.24
2022-10-28T20:15:04.100Z,20.20
2022-10-28T20:17:31.924Z,20.15
2022-10-28T20:19:59.797Z,20.10
2022-10-28T20:22:27.390Z,20.05
2022-10-28T20:24:54.991Z,19.99
2022-10-28T20:27:22.850Z,19.95
2022-10-28T20:29:50.445Z,19.91
2022-10-28T20:32:21.426Z,19.85
2022-10-28T20:34:48.983Z,19.81
2022-10-28T20:37:16.628Z,19.78
2022-10-28T20:39:44.180Z,19.74
2022-10-28T20:42:11.715Z,19.69
2022-10-28T20:44:39.231Z,19.67
2022-10-28T20:47:06.775Z,19.64
2022-10-28T20:49:35.651Z,19.60
2022-10-28T20:52:03.255Z,19.58
2022-10-28T20:54:30.795Z,19.55
2022-10-28T20:56:58.331Z,19.53
2022-10-28T20:59:25.994Z,19.50
2022-10-28T21:01:53.591Z,19.48
2022-10-28T21:04:21.460Z,19.47
2022-10-28T21:06:50.366Z,19.44
2022-10-28T21:09:17.926Z,19.44
2022-10-28T21:11:45.608Z,19.41
2022-10-28T21:14:13.201Z,19.40
2022-10-28T21:16:40.931Z,19.37
2022-10-28T21:19:08.498Z,19.36
2022-10-28T21:21:36.039Z,19.34
2022-10-28T21:24:05.626Z,19.32
2022-10-28T21:26:33.195Z,19.31
2022-10-28T21:29:00.731Z,19.31
2022-10-28T21:31:28.292Z,19.29
2022-10-28T21:33:56.037Z,19.29
2022-10-28T21:36:23.614Z,19.28
2022-10-28T21:38:54.239Z,19.27
2022-10-28T21:41:23.328Z,19.26
2022-10-28T21:43:51.597Z,19.25
2022-10-28T21:46:19.429Z,19.24
2022-10-28T21:48:47.036Z,19.24
2022-10-28T21:51:15.978Z,19.22
2022-10-28T21:53:43.713Z,19.22
2022-10-28T21:56:16.524Z,19.21
2022-10-28T21:58:46.387Z,19.19
2022-10-28T22:01:14.822Z,19.19
2022-10-28T22:03:42.505Z,19.17
2022-10-28T22:06:10.239Z,19.17
2022-10-28T22:08:37.837Z,19.17
2022-10-28T22:11:06.640Z,19.16
2022-10-28T22:13:34.286Z,19.15
2022-10-28T22:16:04.179Z,19.16
2022-10-28T22:18:32.801Z,19.13
2022-10-28T22:21:04.679Z,19.12
2022-10-28T22:23:32.254Z,19.12
2022-10-28T22:26:01.806Z,19.10
2022-10-28T22:28:29.575Z,19.11
2022-10-28T22:30:59.579Z,19.09
2022-10-28T22:33:28.586Z,19.10
2022-10-28T22:35:59.451Z,19.09
2022-10-28T22:38:27.222Z,19.09
2022-10-28T22:41:04.928Z,19.08
2022-10-28T22:43:32.602Z,19.07
2022-10-28T22:46:00.300Z,19.07
2022-10-28T22:48:29.268Z,19.07
2022-10-28T22:50:56.851Z,19.07
2022-10-28T22:53:24.517Z,19.06
2022-10-28T22:55:53.234Z,19.04
2022-10-28T22:58:20.805Z,19.04
2022-10-28T23:00:48.378Z,19.05
2022-10-28T23:03:16.248Z,19.04
2022-10-28T23:05:45.150Z,19.03
2022-10-28T23:08:15.183Z,19.03
2022-10-28T23:10:42.781Z,19.02
2022-10-28T23:13:12.452Z,19.03
2022-10-28T23:15:40.075Z,19.02
2022-10-28T23:18:07.670Z,19.01
2022-10-28T23:20:35.586Z,19.01
2022-10-28T23:23:04.649Z,19.00
2022-10-28T23:25:32.199Z,19.00
2022-10-28T23:27:59.800Z,19.00
2022-10-28T23:30:27.361Z,19.00
2022-10-28T23:32:57.838Z,18.99
2022-10-28T23:35:25.526Z,18.99
2022-10-28T23:37:53.498Z,18.99
2022-10-28T23:40:22.706Z,18.99
2022-10-28T23:42:50.284Z,18.99
2022-10-28T23:45:17.824Z,18.98
2022-10-28T23:47:45.484Z,18.98
2022-10-28T23:50:14.782Z,18.98
2022-10-28T23:52:42.454Z,18.98
2022-10-28T23:55:10.440Z,18.97
2022-10-28T23:57:39.406Z,18.97
